createdAt,value
2024-03-12T00:01:01.637Z,7.45
2024-03-12T00:03:28.985Z,7.45
2024-03-12T00:06:01.085Z,7.46
2024-03-12T00:08:30.866Z,7.46
2024-03-12T00:10:58.646Z,7.47
2024-03-12T00:13:27.504Z,7.46
2024-03-12T00:15:55.845Z,7.47
2024-03-12T00:18:26.414Z,7.46
2024-03-12T00:20:54.411Z,7.45
2024-03-12T00:23:21.439Z,7.44
2024-03-12T00:25:48.038Z,7.40
2024-03-12T00:28:15.101Z,7.40
2024-03-12T00:30:45.837Z,7.39
2024-03-12T00:33:12.825Z,7.37
2024-03-12T00:35:44.082Z,7.37
2024-03-12T00:38:11.688Z,7.37
2024-03-12T00:40:39.887Z,7.38
2024-03-12T00:43:08.741Z,7.40
2024-03-12T00:45:39.318Z,7.39
2024-03-12T00:48:08.371Z,7.40
2024-03-12T00:50:35.158Z,7.39
2024-03-12T00:53:04.917Z,7.39
2024-03-12T00:55:32.119Z,7.41
2024-03-12T00:57:59.954Z,7.42
2024-03-12T01:00:30.021Z,7.40
2024-03-12T01:03:01.103Z,7.41
2024-03-12T01:05:37.237Z,7.39
2024-03-12T01:08:04.603Z,7.40
2024-03-12T01:10:33.464Z,7.40
2024-03-12T01:13:02.050Z,7.40
2024-03-12T01:15:30.103Z,7.38
2024-03-12T01:17:58.145Z,7.37
2024-03-12T01:20:28.375Z,7.37
2024-03-12T01:22:58.986Z,7.38
2024-03-12T01:25:26.185Z,7.39
2024-03-12T01:27:57.505Z,7.38
2024-03-12T01:30:28.259Z,7.38
2024-03-12T01:32:56.539Z,7.39
2024-03-12T01:35:26.259Z,7.40
2024-03-12T01:37:54.092Z,7.39
2024-03-12T01:40:23.713Z,7.38
2024-03-12T01:42:52.517Z,7.39
2024-03-12T01:45:23.635Z,7.38
2024-03-12T01:47:51.929Z,7.40
2024-03-12T01:50:19.666Z,7.39
2024-03-12T01:52:47.651Z,7.39
2024-03-12T01:55:19.828Z,7.38
2024-03-12T01:57:47.078Z,7.38
2024-03-12T02:00:15.290Z,7.41
2024-03-12T02:02:46.719Z,7.42
2024-03-12T02:05:14.403Z,7.42
2024-03-12T02:07:48.099Z,7.39
2024-03-12T02:10:15.764Z,7.42
2024-03-12T02:12:46.180Z,7.40
2024-03-12T02:15:15.260Z,7.42
2024-03-12T02:17:42.138Z,7.43
2024-03-12T02:20:12.442Z,7.42
2024-03-12T02:22:39.089Z,7.43
2024-03-12T02:25:06.859Z,7.44
2024-03-12T02:27:33.623Z,7.43
2024-03-12T02:30:00.659Z,7.45
2024-03-12T02:32:27.633Z,7.45
2024-03-12T02:34:54.953Z,7.43
2024-03-12T02:37:22.498Z,7.43
2024-03-12T02:39:49.354Z,7.39
2024-03-12T02:42:16.623Z,7.42
2024-03-12T02:44:43.287Z,7.43
2024-03-12T02:47:10.650Z,7.46
2024-03-12T02:49:38.009Z,7.45
2024-03-12T02:52:05.308Z,7.45
2024-03-12T02:54:32.066Z,7.46
2024-03-12T02:56:59.421Z,7.45
2024-03-12T02:59:28.540Z,7.44
2024-03-12T03:01:58.491Z,7.46
2024-03-12T03:04:25.517Z,7.45
2024-03-12T03:06:59.023Z,7.46
2024-03-12T03:09:27.539Z,7.46
2024-03-12T03:11:54.249Z,7.45
2024-03-12T03:14:21.687Z,7.43
2024-03-12T03:16:49.416Z,7.42
2024-03-12T03:19:16.368Z,7.40
2024-03-12T03:21:43.066Z,7.36
2024-03-12T03:24:09.685Z,7.35
2024-03-12T03:26:36.312Z,7.36
2024-03-12T03:29:03.938Z,7.35
2024-03-12T03:31:30.790Z,7.32
2024-03-12T03:34:05.615Z,7.32
2024-03-12T03:36:37.453Z,7.32
2024-03-12T03:39:04.294Z,7.29
2024-03-12T03:41:31.387Z,7.28
2024-03-12T03:43:58.366Z,7.27
2024-03-12T03:46:25.584Z,7.28
2024-03-12T03:48:52.382Z,7.25
2024-03-12T03:51:18.984Z,7.27
2024-03-12T03:53:45.618Z,7.25
2024-03-12T03:56:17.024Z,7.21
2024-03-12T03:58:46.679Z,7.18
2024-03-12T04:01:15.068Z,7.17
2024-03-12T04:03:42.693Z,7.17
2024-03-12T04:06:09.633Z,7.18
2024-03-12T04:08:36.923Z,7.19
2024-03-12T04:11:04.900Z,7.23
2024-03-12T04:13:35.493Z,7.22
2024-03-12T04:16:02.217Z,7.20
2024-03-12T04:18:29.943Z,7.20
2024-03-12T04:20:57.244Z,7.22
2024-03-12T04:23:24.422Z,7.22
2024-03-12T04:25:51.430Z,7.26
2024-03-12T04:28:20.624Z,7.26
2024-03-12T04:30:50.106Z,7.25
2024-03-12T04:33:18.968Z,7.24
2024-03-12T04:35:46.512Z,7.22
2024-03-12T04:38:17.477Z,7.20
2024-03-12T04:40:44.378Z,7.22
2024-03-12T04:43:11.515Z,7.20
2024-03-12T04:45:38.427Z,7.24
2024-03-12T04:48:05.262Z,7.26
2024-03-12T04:50:31.867Z,7.24
2024-03-12T04:52:58.479Z,7.23
2024-03-12T04:55:25.077Z,7.21
2024-03-12T04:57:51.816Z,7.19
2024-03-12T05:00:22.585Z,7.18
2024-03-12T05:02:52.548Z,7.14
2024-03-12T05:05:20.601Z,7.15
2024-03-12T05:07:47.963Z,7.19
2024-03-12T05:10:15.924Z,7.17
2024-03-12T05:12:42.684Z,7.14
2024-03-12T05:15:10.614Z,7.15
2024-03-12T05:17:38.223Z,7.18
2024-03-12T05:20:14.049Z,7.17
2024-03-12T05:22:40.717Z,7.16
2024-03-12T05:25:12.126Z,7.15
2024-03-12T05:27:39.109Z,7.12
2024-03-12T05:30:12.108Z,7.08
2024-03-12T05:32:42.428Z,7.03
2024-03-12T05:35:18.507Z,7.01
2024-03-12T05:38:05.255Z,7.06
2024-03-12T05:40:48.047Z,7.03
2024-03-12T05:43:33.341Z,7.05
2024-03-12T05:46:19.128Z,7.03
2024-03-12T05:48:51.534Z,7.06
2024-03-12T05:51:21.957Z,7.07
2024-03-12T05:53:48.846Z,7.05
2024-03-12T05:56:18.349Z,7.04
2024-03-12T05:58:48.923Z,7.06
2024-03-12T06:01:16.028Z,7.07
2024-03-12T06:03:42.846Z,7.10
2024-03-12T06:06:09.627Z,7.10
2024-03-12T06:08:36.617Z,7.11
2024-03-12T06:11:03.662Z,7.10
2024-03-12T06:13:30.526Z,7.11
2024-03-12T06:15:58.670Z,7.09
2024-03-12T06:18:29.642Z,7.10
2024-03-12T06:20:56.457Z,7.08
2024-03-12T06:23:24.453Z,7.08
2024-03-12T06:25:51.373Z,7.11
2024-03-12T06:28:21.696Z,7.06
2024-03-12T06:30:49.496Z,7.03
2024-03-12T06:33:19.174Z,7.07
2024-03-12T06:35:49.762Z,7.06
2024-03-12T06:38:17.354Z,7.08
2024-03-12T06:40:44.703Z,7.04
2024-03-12T06:43:14.843Z,7.10
2024-03-12T06:45:42.318Z,7.11
2024-03-12T06:48:09.311Z,7.07
2024-03-12T06:50:36.130Z,7.07
2024-03-12T06:53:02.847Z,7.09
2024-03-12T06:55:29.529Z,7.09
2024-03-12T06:58:01.608Z,7.07
2024-03-12T07:00:38.047Z,7.10
2024-03-12T07:03:05.942Z,7.12
2024-03-12T07:05:37.331Z,7.12
2024-03-12T07:08:07.064Z,7.15
2024-03-12T07:10:34.739Z,7.13
2024-03-12T07:13:03.495Z,7.15
2024-03-12T07:15:32.796Z,7.19
2024-03-12T07:17:59.973Z,7.21
2024-03-12T07:20:29.365Z,7.21
2024-03-12T07:22:58.194Z,7.19
2024-03-12T07:25:26.947Z,7.20
2024-03-12T07:27:57.330Z,7.24
2024-03-12T07:30:26.054Z,7.24
2024-03-12T07:32:54.196Z,7.30
2024-03-12T07:35:21.096Z,7.31
2024-03-12T07:37:47.727Z,7.34
2024-03-12T07:40:17.345Z,7.35
2024-03-12T07:42:45.829Z,7.35
2024-03-12T07:45:17.489Z,7.38
2024-03-12T07:47:44.998Z,7.41
2024-03-12T07:50:15.314Z,7.40
2024-03-12T07:52:42.267Z,7.41
2024-03-12T07:55:11.607Z,7.39
2024-03-12T07:57:39.610Z,7.39
2024-03-12T08:00:06.913Z,7.40
2024-03-12T08:02:33.561Z,7.42
2024-03-12T08:05:00.250Z,7.41
2024-03-12T08:07:26.971Z,7.43
2024-03-12T08:09:53.783Z,7.43
2024-03-12T08:12:20.902Z,7.43
2024-03-12T08:14:47.841Z,7.46
2024-03-12T08:17:14.583Z,7.50
2024-03-12T08:19:43.653Z,7.52
2024-03-12T08:22:10.938Z,7.54
2024-03-12T08:24:41.994Z,7.56
2024-03-12T08:27:08.636Z,7.58
2024-03-12T08:29:35.429Z,7.61
2024-03-12T08:32:02.199Z,7.61
2024-03-12T08:34:29.121Z,7.61
2024-03-12T08:36:57.263Z,7.65
2024-03-12T08:39:29.103Z,7.62
2024-03-12T08:41:56.384Z,7.59
2024-03-12T08:44:23.341Z,7.58
2024-03-12T08:46:51.202Z,7.59
2024-03-12T08:49:18.053Z,7.60
2024-03-12T08:51:44.741Z,7.62
2024-03-12T08:54:11.406Z,7.60
2024-03-12T08:56:38.142Z,7.63
2024-03-12T08:59:06.538Z,7.66
2024-03-12T09:01:33.921Z,7.65
2024-03-12T09:04:01.145Z,7.61
2024-03-12T09:06:28.037Z,7.61
2024-03-12T09:08:56.107Z,7.57
2024-03-12T09:11:22.863Z,7.57
2024-03-12T09:13:49.943Z,7.60
2024-03-12T09:16:17.567Z,7.63
2024-03-12T09:18:45.065Z,7.64
2024-03-12T09:21:16.413Z,7.68
2024-03-12T09:23:53.485Z,7.71
2024-03-12T09:26:29.229Z,7.78
2024-03-12T09:28:56.315Z,7.82
2024-03-12T09:31:23.397Z,7.83
2024-03-12T09:33:52.146Z,7.82
2024-03-12T09:36:18.814Z,7.83
2024-03-12T09:38:47.839Z,7.85
2024-03-12T09:41:17.627Z,7.88
2024-03-12T09:43:45.568Z,7.88
2024-03-12T09:46:13.524Z,7.87
2024-03-12T09:48:40.917Z,7.92
2024-03-12T09:51:08.197Z,7.92
2024-03-12T09:53:34.761Z,7.94
2024-03-12T09:56:07.748Z,7.95
2024-03-12T09:58:40.607Z,7.97
2024-03-12T10:01:07.841Z,7.99
2024-03-12T10:03:37.712Z,7.95
2024-03-12T10:06:05.176Z,7.93
2024-03-12T10:08:33.118Z,7.88
2024-03-12T10:11:03.538Z,7.88
2024-03-12T10:13:30.582Z,7.89
2024-03-12T10:16:00.962Z,7.89
2024-03-12T10:18:29.880Z,7.96
2024-03-12T10:21:02.210Z,8.04
2024-03-12T10:23:35.028Z,8.10
2024-03-12T10:26:18.215Z,8.19
2024-03-12T10:28:52.331Z,8.27
2024-03-12T10:31:21.424Z,8.39
2024-03-12T10:33:51.554Z,8.49
2024-03-12T10:36:35.142Z,8.60
2024-03-12T10:39:07.573Z,8.75
2024-03-12T10:41:34.778Z,8.88
2024-03-12T10:44:09.065Z,8.92
2024-03-12T10:46:44.774Z,8.96
2024-03-12T10:49:13.652Z,8.98
2024-03-12T10:51:42.249Z,8.97
2024-03-12T10:54:18.194Z,8.94
2024-03-12T10:56:47.872Z,8.91
2024-03-12T10:59:17.564Z,8.89
2024-03-12T11:01:45.011Z,8.92
2024-03-12T11:04:12.638Z,8.99
2024-03-12T11:06:43.340Z,8.95
2024-03-12T11:09:13.288Z,9.02
2024-03-12T11:11:40.750Z,9.01
2024-03-12T11:14:09.042Z,9.07
2024-03-12T11:16:36.822Z,9.15
2024-03-12T11:19:20.589Z,9.25
2024-03-12T11:21:51.297Z,9.26
2024-03-12T11:24:43.965Z,9.27
2024-03-12T11:27:22.593Z,9.24
2024-03-12T11:30:13.036Z,9.33
2024-03-12T11:32:42.776Z,9.41
2024-03-12T11:35:30.657Z,9.48
2024-03-12T11:38:00.361Z,9.55
2024-03-12T11:40:28.886Z,9.62
2024-03-12T11:42:59.287Z,9.76
2024-03-12T11:45:36.068Z,9.92
2024-03-12T11:48:02.765Z,9.99
2024-03-12T11:50:37.946Z,10.03
2024-03-12T11:53:15.573Z,10.09
2024-03-12T11:56:09.089Z,10.23
2024-03-12T11:58:59.705Z,10.30
2024-03-12T12:01:33.362Z,10.29
2024-03-12T12:04:04.809Z,10.22
2024-03-12T12:06:33.376Z,10.12
2024-03-12T12:09:09.868Z,10.15
2024-03-12T12:11:38.950Z,10.12
2024-03-12T12:14:09.998Z,10.11
2024-03-12T12:16:37.536Z,10.13
2024-03-12T12:19:19.137Z,10.15
2024-03-12T12:21:53.021Z,10.18
2024-03-12T12:24:25.531Z,10.20
2024-03-12T12:26:54.886Z,10.18
2024-03-12T12:29:22.625Z,10.19
2024-03-12T12:31:52.857Z,10.19
2024-03-12T12:34:22.036Z,10.26
2024-03-12T12:36:51.432Z,10.32
2024-03-12T12:39:18.731Z,10.36
2024-03-12T12:41:47.625Z,10.41
2024-03-12T12:44:18.140Z,10.49
2024-03-12T12:46:47.251Z,10.52
2024-03-12T12:49:15.522Z,10.52
2024-03-12T12:51:43.073Z,10.52
2024-03-12T12:54:10.825Z,10.51
2024-03-12T12:56:42.693Z,10.48
2024-03-12T12:59:14.013Z,10.58
2024-03-12T13:01:41.692Z,10.64
2024-03-12T13:04:23.817Z,10.75
2024-03-12T13:06:53.317Z,10.81
2024-03-12T13:09:35.294Z,10.80
2024-03-12T13:12:03.447Z,10.85
2024-03-12T13:14:30.823Z,10.83
2024-03-12T13:17:00.030Z,10.82
2024-03-12T13:19:27.676Z,10.86
2024-03-12T13:21:57.334Z,10.87
2024-03-12T13:24:24.967Z,10.87
2024-03-12T13:26:52.116Z,10.93
2024-03-12T13:29:18.854Z,10.99
2024-03-12T13:31:45.613Z,11.03
2024-03-12T13:34:12.366Z,11.09
2024-03-12T13:36:39.020Z,11.15
2024-03-12T13:39:07.435Z,11.20
2024-03-12T13:41:34.100Z,11.23
2024-03-12T13:44:00.716Z,11.24
2024-03-12T13:46:27.587Z,11.27
2024-03-12T13:49:12.140Z,11.25
2024-03-12T13:51:40.388Z,11.28
2024-03-12T13:54:09.994Z,11.45
2024-03-12T13:56:37.771Z,11.62
2024-03-12T13:59:05.682Z,11.66
2024-03-12T14:01:33.057Z,11.59
2024-03-12T14:03:59.889Z,11.45
2024-03-12T14:06:26.609Z,11.36
2024-03-12T14:08:53.299Z,11.25
2024-03-12T14:11:19.910Z,11.18
2024-03-12T14:13:46.636Z,11.13
2024-03-12T14:16:13.478Z,11.05
2024-03-12T14:18:40.346Z,11.01
2024-03-12T14:21:07.344Z,10.96
2024-03-12T14:23:34.049Z,10.89
2024-03-12T14:26:00.676Z,10.83
2024-03-12T14:28:30.994Z,10.80
2024-03-12T14:31:00.122Z,10.85
2024-03-12T14:33:29.702Z,10.90
2024-03-12T14:35:56.765Z,10.93
2024-03-12T14:38:24.063Z,11.02
2024-03-12T14:40:50.857Z,11.12
2024-03-12T14:43:17.845Z,11.18
2024-03-12T14:45:47.506Z,11.19
2024-03-12T14:48:14.842Z,11.27
2024-03-12T14:50:43.705Z,11.29
2024-03-12T14:53:10.597Z,11.28
2024-03-12T14:55:37.335Z,11.30
2024-03-12T14:58:04.153Z,11.41
2024-03-12T15:00:30.811Z,11.43
2024-03-12T15:02:57.498Z,11.41
2024-03-12T15:05:24.951Z,11.40
2024-03-12T15:07:51.686Z,11.36
2024-03-12T15:10:18.614Z,11.36
2024-03-12T15:12:45.484Z,11.33
2024-03-12T15:15:13.448Z,11.31
2024-03-12T15:17:42.596Z,11.33
2024-03-12T15:20:16.801Z,11.35
2024-03-12T15:22:44.136Z,11.40
2024-03-12T15:25:14.309Z,11.40
2024-03-12T15:27:43.213Z,11.42
2024-03-12T15:30:10.917Z,11.45
2024-03-12T15:32:39.631Z,11.43
2024-03-12T15:35:07.527Z,11.32
2024-03-12T15:37:34.412Z,11.26
2024-03-12T15:40:01.490Z,11.24
2024-03-12T15:42:29.383Z,11.28
2024-03-12T15:44:56.880Z,11.29
2024-03-12T15:47:23.926Z,11.27
2024-03-12T15:49:51.515Z,11.18
2024-03-12T15:52:18.704Z,11.15
2024-03-12T15:54:49.477Z,11.09
2024-03-12T15:57:18.412Z,11.07
2024-03-12T15:59:48.008Z,11.03
2024-03-12T16:02:14.870Z,10.94
2024-03-12T16:04:42.183Z,10.89
2024-03-12T16:07:08.870Z,10.83
2024-03-12T16:09:36.114Z,10.80
2024-03-12T16:12:02.805Z,10.73
2024-03-12T16:14:29.409Z,10.69
2024-03-12T16:16:56.091Z,10.63
2024-03-12T16:19:23.972Z,10.62
2024-03-12T16:21:50.993Z,10.62
2024-03-12T16:24:17.683Z,10.61
2024-03-12T16:26:44.355Z,10.57
2024-03-12T16:29:10.988Z,10.53
2024-03-12T16:31:37.643Z,10.52
2024-03-12T16:34:05.799Z,10.47
2024-03-12T16:36:35.605Z,10.45
2024-03-12T16:39:05.574Z,10.42
2024-03-12T16:41:32.474Z,10.42
2024-03-12T16:44:00.834Z,10.38
2024-03-12T16:46:27.587Z,10.33
2024-03-12T16:48:54.285Z,10.30
2024-03-12T16:51:20.992Z,10.26
2024-03-12T16:53:47.758Z,10.23
2024-03-12T16:58:45.637Z,10.19
2024-03-12T17:01:13.580Z,10.17
2024-03-12T17:03:40.994Z,10.15
2024-03-12T17:06:08.266Z,10.14
2024-03-12T17:08:35.169Z,10.08
2024-03-12T17:11:02.244Z,10.06
2024-03-12T17:13:29.432Z,10.02
2024-03-12T17:15:56.828Z,10.01
2024-03-12T17:18:25.546Z,9.97
2024-03-12T17:20:55.636Z,9.95
2024-03-12T17:23:25.188Z,9.88
2024-03-12T17:25:53.881Z,9.87
2024-03-12T17:28:21.068Z,9.84
2024-03-12T17:30:48.191Z,9.87
2024-03-12T17:33:15.030Z,9.84
2024-03-12T17:35:42.045Z,9.84
2024-03-12T17:38:14.038Z,9.79
2024-03-12T17:40:41.513Z,9.75
2024-03-12T17:43:08.732Z,9.71
2024-03-12T17:45:35.602Z,9.66
2024-03-12T17:48:02.680Z,9.66
2024-03-12T17:50:30.862Z,9.65
2024-03-12T17:53:03.324Z,9.63
2024-03-12T17:55:30.679Z,9.63
2024-03-12T17:58:03.432Z,9.58
2024-03-12T18:00:31.040Z,9.60
2024-03-12T18:02:58.131Z,9.62
2024-03-12T18:05:25.198Z,9.63
2024-03-12T18:07:53.518Z,9.63
2024-03-12T18:10:23.773Z,9.59
2024-03-12T18:12:50.809Z,9.56
2024-03-12T18:15:18.114Z,9.56
2024-03-12T18:17:46.262Z,9.53
2024-03-12T18:20:17.354Z,9.51
2024-03-12T18:22:44.097Z,9.49
2024-03-12T18:25:11.760Z,9.48
2024-03-12T18:27:42.310Z,9.44
2024-03-12T18:30:11.047Z,9.43
2024-03-12T18:32:41.581Z,9.41
2024-03-12T18:35:09.688Z,9.38
2024-03-12T18:37:38.992Z,9.35
2024-03-12T18:40:13.010Z,9.37
2024-03-12T18:42:41.971Z,9.35
2024-03-12T18:45:14.257Z,9.33
2024-03-12T18:47:41.564Z,9.29
2024-03-12T18:50:13.241Z,9.29
2024-03-12T18:52:40.753Z,9.27
2024-03-12T18:55:11.510Z,9.25
2024-03-12T18:57:42.391Z,9.25
2024-03-12T19:00:19.070Z,9.25
2024-03-12T19:02:49.765Z,9.23
2024-03-12T19:05:21.503Z,9.25
2024-03-12T19:07:50.257Z,9.24
2024-03-12T19:10:18.160Z,9.21
2024-03-12T19:12:45.693Z,9.15
2024-03-12T19:15:21.616Z,9.18
2024-03-12T19:17:52.752Z,9.15
2024-03-12T19:20:21.119Z,9.15
2024-03-12T19:22:54.496Z,9.13
2024-03-12T19:25:22.672Z,9.11
2024-03-12T19:27:51.287Z,9.12
2024-03-12T19:30:20.373Z,9.13
2024-03-12T19:32:49.471Z,9.09
2024-03-12T19:35:16.534Z,9.10
2024-03-12T19:37:44.849Z,9.07
2024-03-12T19:40:13.373Z,9.05
2024-03-12T19:42:47.937Z,9.02
2024-03-12T19:45:19.532Z,9.02
2024-03-12T19:47:47.622Z,9.02
2024-03-12T19:50:21.147Z,9.04
2024-03-12T19:52:48.150Z,9.06
2024-03-12T19:55:19.545Z,9.05
2024-03-12T19:57:57.190Z,9.01
2024-03-12T20:00:33.941Z,9.00
2024-03-12T20:03:06.784Z,9.00
2024-03-12T20:05:36.249Z,9.01
2024-03-12T20:08:05.268Z,9.02
2024-03-12T20:10:35.619Z,9.05
2024-03-12T20:13:05.634Z,9.06
2024-03-12T20:15:33.629Z,9.07
2024-03-12T20:18:02.041Z,9.05
2024-03-12T20:20:29.801Z,9.05
2024-03-12T20:22:56.840Z,9.06
2024-03-12T20:25:23.901Z,9.04
2024-03-12T20:27:55.006Z,9.08
2024-03-12T20:30:28.269Z,9.07
2024-03-12T20:32:59.995Z,9.07
2024-03-12T20:35:28.974Z,9.06
2024-03-12T20:37:56.554Z,9.02
2024-03-12T20:40:26.187Z,9.03
2024-03-12T20:42:53.971Z,9.01
2024-03-12T20:45:22.736Z,9.04
2024-03-12T20:47:50.375Z,9.06
2024-03-12T20:50:20.936Z,9.05
2024-03-12T20:52:48.387Z,9.01
2024-03-12T20:55:15.644Z,9.01
2024-03-12T20:57:48.010Z,9.01
2024-03-12T21:00:19.813Z,9.01
2024-03-12T21:02:54.245Z,9.02
2024-03-12T21:05:20.948Z,9.03
2024-03-12T21:07:51.777Z,9.02
2024-03-12T21:10:18.683Z,9.03
2024-03-12T21:12:49.768Z,9.03
2024-03-12T21:15:17.771Z,9.02
2024-03-12T21:17:45.386Z,9.01
2024-03-12T21:20:17.079Z,9.01
2024-03-12T21:22:43.655Z,8.99
2024-03-12T21:25:11.534Z,9.01
2024-03-12T21:27:38.608Z,8.99
2024-03-12T21:30:10.270Z,8.97
2024-03-12T21:32:36.949Z,8.95
2024-03-12T21:35:06.258Z,8.94
2024-03-12T21:37:33.364Z,8.95
2024-03-12T21:40:00.848Z,8.97
2024-03-12T21:42:27.733Z,8.97
2024-03-12T21:44:54.422Z,8.96
2024-03-12T21:47:21.688Z,8.98
2024-03-12T21:49:48.532Z,8.97
2024-03-12T21:52:17.121Z,8.97
2024-03-12T21:54:47.769Z,8.99
2024-03-12T21:57:14.523Z,9.01
2024-03-12T21:59:41.345Z,8.98
2024-03-12T22:02:08.139Z,9.00
2024-03-12T22:04:34.958Z,9.00
2024-03-12T22:07:03.452Z,8.98
2024-03-12T22:09:30.472Z,8.98
2024-03-12T22:11:57.121Z,8.97
2024-03-12T22:14:25.304Z,8.97
2024-03-12T22:16:52.333Z,8.97
2024-03-12T22:19:19.540Z,8.96
2024-03-12T22:21:49.097Z,8.94
2024-03-12T22:24:23.748Z,8.96
2024-03-12T22:26:54.711Z,8.98
2024-03-12T22:29:21.527Z,9.00
2024-03-12T22:31:49.622Z,9.01
2024-03-12T22:34:16.305Z,9.00
2024-03-12T22:36:45.540Z,8.99
2024-03-12T22:39:14.312Z,9.01
2024-03-12T22:41:48.627Z,9.01
2024-03-12T22:44:16.124Z,9.00
2024-03-12T22:46:45.379Z,9.01
2024-03-12T22:49:12.391Z,9.01
2024-03-12T22:51:41.354Z,9.00
2024-03-12T22:54:10.219Z,9.01
2024-03-12T22:56:37.345Z,9.02
2024-03-12T22:59:05.387Z,9.03
2024-03-12T23:01:33.098Z,9.01
2024-03-12T23:04:02.499Z,8.99
2024-03-12T23:06:32.323Z,9.00
2024-03-12T23:08:59.094Z,9.00
2024-03-12T23:11:27.729Z,8.99
2024-03-12T23:13:54.335Z,9.00
2024-03-12T23:16:21.063Z,8.98
2024-03-12T23:18:49.543Z,8.97
2024-03-12T23:21:18.292Z,8.99
2024-03-12T23:23:45.808Z,8.98
2024-03-12T23:26:12.475Z,8.98
2024-03-12T23:28:39.175Z,8.99
2024-03-12T23:31:07.415Z,9.02
2024-03-12T23:33:34.050Z,9.06
2024-03-12T23:36:00.665Z,9.07
2024-03-12T23:38:27.205Z,9.07
2024-03-12T23:40:54.387Z,9.06
2024-03-12T23:43:21.255Z,9.03
2024-03-12T23:45:48.570Z,9.04
2024-03-12T23:48:16.234Z,9.06
2024-03-12T23:50:45.717Z,9.09
2024-03-12T23:53:12.414Z,9.06
2024-03-12T23:55:39.127Z,9.08
2024-03-12T23:58:05.752Z,9.09
